sensor_id;sensor_type;location;lat;lon;timestamp;P1;durP1;ratioP1;P2;durP2;ratioP2
28086;SDS011;15392;48.912;8.380;2023-07-20T00:01:24;0.40;;;0.40;;
28086;SDS011;15392;48.912;8.380;2023-07-20T00:03:49;0.40;;;0.40;;
28086;SDS011;15392;48.912;8.380;2023-07-20T00:08:53;0.35;;;0.35;;
28086;SDS011;15392;48.912;8.380;2023-07-20T00:11:21;0.60;;;0.60;;
28086;SDS011;15392;48.912;8.380;2023-07-20T00:13:51;0.40;;;0.40;;
28086;SDS011;15392;48.912;8.380;2023-07-20T00:16:16;0.40;;;0.40;;
28086;SDS011;15392;48.912;8.380;2023-07-20T00:18:42;0.50;;;0.50;;
28086;SDS011;15392;48.912;8.380;2023-07-20T00:21:08;0.40;;;0.40;;
28086;SDS011;15392;48.912;8.380;2023-07-20T00:23:34;0.50;;;0.50;;
28086;SDS011;15392;48.912;8.380;2023-07-20T00:26:00;0.50;;;0.50;;
28086;SDS011;15392;48.912;8.380;2023-07-20T00:28:26;0.52;;;0.52;;
28086;SDS011;15392;48.912;8.380;2023-07-20T00:30:51;0.40;;;0.40;;
28086;SDS011;15392;48.912;8.380;2023-07-20T00:33:18;0.45;;;0.45;;
28086;SDS011;15392;48.912;8.380;2023-07-20T00:35:43;0.38;;;0.38;;
28086;SDS011;15392;48.912;8.380;2023-07-20T00:38:09;0.57;;;0.40;;
28086;SDS011;15392;48.912;8.380;2023-07-20T00:40:39;0.40;;;0.40;;
28086;SDS011;15392;48.912;8.380;2023-07-20T00:43:06;0.40;;;0.40;;
28086;SDS011;15392;48.912;8.380;2023-07-20T00:45:32;0.30;;;0.30;;
28086;SDS011;15392;48.912;8.380;2023-07-20T00:47:59;0.50;;;0.50;;
28086;SDS011;15392;48.912;8.380;2023-07-20T00:50:27;0.43;;;0.43;;
28086;SDS011;15392;48.912;8.380;2023-07-20T00:52:57;0.45;;;0.45;;
28086;SDS011;15392;48.912;8.380;2023-07-20T00:55:23;0.30;;;0.30;;
28086;SDS011;15392;48.912;8.380;2023-07-20T00:57:50;0.40;;;0.40;;
28086;SDS011;15392;48.912;8.380;2023-07-20T01:00:16;2.25;;;0.38;;
28086;SDS011;15392;48.912;8.380;2023-07-20T01:02:43;0.40;;;0.40;;
28086;SDS011;15392;48.912;8.380;2023-07-20T01:05:08;0.32;;;0.32;;
28086;SDS011;15392;48.912;8.380;2023-07-20T01:07:53;0.50;;;0.50;;
28086;SDS011;15392;48.912;8.380;2023-07-20T01:10:25;0.40;;;0.40;;
28086;SDS011;15392;48.912;8.380;2023-07-20T01:13:00;0.40;;;0.40;;
28086;SDS011;15392;48.912;8.380;2023-07-20T01:15:28;0.30;;;0.30;;
28086;SDS011;15392;48.912;8.380;2023-07-20T01:17:54;0.50;;;0.50;;
28086;SDS011;15392;48.912;8.380;2023-07-20T01:20:20;0.35;;;0.35;;
28086;SDS011;15392;48.912;8.380;2023-07-20T01:32:04;0.30;;;0.30;;
28086;SDS011;15392;48.912;8.380;2023-07-20T01:34:32;0.40;;;0.40;;
28086;SDS011;15392;48.912;8.380;2023-07-20T01:37:01;0.40;;;0.40;;
28086;SDS011;15392;48.912;8.380;2023-07-20T01:39:28;0.47;;;0.40;;
28086;SDS011;15392;48.912;8.380;2023-07-20T01:41:55;0.50;;;0.50;;
28086;SDS011;15392;48.912;8.380;2023-07-20T01:44:21;0.30;;;0.30;;
28086;SDS011;15392;48.912;8.380;2023-07-20T01:46:47;0.47;;;0.47;;
28086;SDS011;15392;48.912;8.380;2023-07-20T01:49:13;0.52;;;0.52;;
28086;SDS011;15392;48.912;8.380;2023-07-20T01:51:38;0.38;;;0.38;;
28086;SDS011;15392;48.912;8.380;2023-07-20T01:54:04;0.40;;;0.40;;
28086;SDS011;15392;48.912;8.380;2023-07-20T01:56:30;0.43;;;0.43;;
28086;SDS011;15392;48.912;8.380;2023-07-20T01:58:55;0.40;;;0.40;;
28086;SDS011;15392;48.912;8.380;2023-07-20T02:01:21;0.47;;;0.47;;
28086;SDS011;15392;48.912;8.380;2023-07-20T02:03:47;0.32;;;0.32;;
28086;SDS011;15392;48.912;8.380;2023-07-20T02:06:13;0.45;;;0.45;;
28086;SDS011;15392;48.912;8.380;2023-07-20T02:08:39;0.40;;;0.40;;
28086;SDS011;15392;48.912;8.380;2023-07-20T02:11:05;0.43;;;0.43;;
28086;SDS011;15392;48.912;8.380;2023-07-20T02:13:31;0.57;;;0.57;;
28086;SDS011;15392;48.912;8.380;2023-07-20T02:15:56;0.93;;;0.45;;
28086;SDS011;15392;48.912;8.380;2023-07-20T02:18:22;0.57;;;0.57;;
28086;SDS011;15392;48.912;8.380;2023-07-20T02:20:48;1.02;;;0.50;;
28086;SDS011;15392;48.912;8.380;2023-07-20T02:23:13;0.40;;;0.40;;
28086;SDS011;15392;48.912;8.380;2023-07-20T02:25:40;0.30;;;0.30;;
28086;SDS011;15392;48.912;8.380;2023-07-20T02:28:07;0.55;;;0.55;;
28086;SDS011;15392;48.912;8.380;2023-07-20T02:30:34;0.45;;;0.45;;
28086;SDS011;15392;48.912;8.380;2023-07-20T02:33:03;0.40;;;0.40;;
28086;SDS011;15392;48.912;8.380;2023-07-20T02:35:30;0.30;;;0.30;;
28086;SDS011;15392;48.912;8.380;2023-07-20T02:37:56;0.60;;;0.50;;
28086;SDS011;15392;48.912;8.380;2023-07-20T02:40:22;0.30;;;0.30;;
28086;SDS011;15392;48.912;8.380;2023-07-20T02:42:48;0.30;;;0.30;;
28086;SDS011;15392;48.912;8.380;2023-07-20T02:45:14;0.45;;;0.40;;
28086;SDS011;15392;48.912;8.380;2023-07-20T02:47:42;0.30;;;0.30;;
28086;SDS011;15392;48.912;8.380;2023-07-20T02:50:08;0.30;;;0.30;;
28086;SDS011;15392;48.912;8.380;2023-07-20T02:52:34;0.40;;;0.40;;
28086;SDS011;15392;48.912;8.380;2023-07-20T02:55:00;0.30;;;0.30;;
28086;SDS011;15392;48.912;8.380;2023-07-20T02:57:25;0.30;;;0.30;;
28086;SDS011;15392;48.912;8.380;2023-07-20T02:59:52;0.40;;;0.40;;
28086;SDS011;15392;48.912;8.380;2023-07-20T03:02:18;0.40;;;0.40;;
28086;SDS011;15392;48.912;8.380;2023-07-20T03:04:44;0.60;;;0.60;;
28086;SDS011;15392;48.912;8.380;2023-07-20T03:07:09;0.28;;;0.28;;
28086;SDS011;15392;48.912;8.380;2023-07-20T03:09:35;0.40;;;0.40;;
28086;SDS011;15392;48.912;8.380;2023-07-20T03:12:01;0.32;;;0.32;;
28086;SDS011;15392;48.912;8.380;2023-07-20T03:14:27;0.30;;;0.30;;
28086;SDS011;15392;48.912;8.380;2023-07-20T03:16:52;0.95;;;0.40;;
28086;SDS011;15392;48.912;8.380;2023-07-20T03:19:18;0.40;;;0.40;;
28086;SDS011;15392;48.912;8.380;2023-07-20T03:21:44;0.40;;;0.40;;
28086;SDS011;15392;48.912;8.380;2023-07-20T03:24:10;0.45;;;0.45;;
28086;SDS011;15392;48.912;8.380;2023-07-20T03:26:36;0.50;;;0.50;;
28086;SDS011;15392;48.912;8.380;2023-07-20T03:29:02;0.30;;;0.30;;
28086;SDS011;15392;48.912;8.380;2023-07-20T03:31:29;0.40;;;0.40;;
28086;SDS011;15392;48.912;8.380;2023-07-20T03:33:55;0.40;;;0.40;;
28086;SDS011;15392;48.912;8.380;2023-07-20T03:36:20;0.38;;;0.38;;
28086;SDS011;15392;48.912;8.380;2023-07-20T03:38:46;0.60;;;0.60;;
28086;SDS011;15392;48.912;8.380;2023-07-20T03:41:12;0.60;;;0.60;;
28086;SDS011;15392;48.912;8.380;2023-07-20T03:43:39;0.50;;;0.50;;
28086;SDS011;15392;48.912;8.380;2023-07-20T03:46:05;0.43;;;0.43;;
28086;SDS011;15392;48.912;8.380;2023-07-20T03:48:32;0.40;;;0.40;;
28086;SDS011;15392;48.912;8.380;2023-07-20T03:50:58;0.30;;;0.30;;
28086;SDS011;15392;48.912;8.380;2023-07-20T03:53:25;0.40;;;0.40;;
28086;SDS011;15392;48.912;8.380;2023-07-20T03:55:51;0.40;;;0.40;;
28086;SDS011;15392;48.912;8.380;2023-07-20T03:58:18;0.50;;;0.50;;
28086;SDS011;15392;48.912;8.380;2023-07-20T04:00:45;0.50;;;0.50;;
28086;SDS011;15392;48.912;8.380;2023-07-20T04:03:13;0.50;;;0.50;;
28086;SDS011;15392;48.912;8.380;2023-07-20T04:05:39;0.63;;;0.63;;
28086;SDS011;15392;48.912;8.380;2023-07-20T04:08:05;2.33;;;0.60;;
28086;SDS011;15392;48.912;8.380;2023-07-20T04:10:31;0.60;;;0.60;;
28086;SDS011;15392;48.912;8.380;2023-07-20T04:12:57;0.38;;;0.38;;
28086;SDS011;15392;48.912;8.380;2023-07-20T04:15:22;0.38;;;0.38;;
28086;SDS011;15392;48.912;8.380;2023-07-20T04:17:48;0.40;;;0.40;;
28086;SDS011;15392;48.912;8.380;2023-07-20T04:20:14;0.32;;;0.32;;
28086;SDS011;15392;48.912;8.380;2023-07-20T04:22:40;0.40;;;0.40;;
28086;SDS011;15392;48.912;8.380;2023-07-20T04:25:05;0.50;;;0.50;;
28086;SDS011;15392;48.912;8.380;2023-07-20T04:27:32;0.70;;;0.70;;
28086;SDS011;15392;48.912;8.380;2023-07-20T04:29:58;0.52;;;0.52;;
28086;SDS011;15392;48.912;8.380;2023-07-20T04:32:27;0.45;;;0.45;;
28086;SDS011;15392;48.912;8.380;2023-07-20T04:34:53;0.43;;;0.43;;
28086;SDS011;15392;48.912;8.380;2023-07-20T04:37:18;0.40;;;0.40;;
28086;SDS011;15392;48.912;8.380;2023-07-20T04:39:44;0.40;;;0.40;;
28086;SDS011;15392;48.912;8.380;2023-07-20T04:42:10;0.45;;;0.45;;
28086;SDS011;15392;48.912;8.380;2023-07-20T04:44:36;0.30;;;0.30;;
28086;SDS011;15392;48.912;8.380;2023-07-20T04:47:02;0.47;;;0.47;;
28086;SDS011;15392;48.912;8.380;2023-07-20T04:49:28;0.50;;;0.50;;
28086;SDS011;15392;48.912;8.380;2023-07-20T04:51:53;0.35;;;0.35;;
28086;SDS011;15392;48.912;8.380;2023-07-20T04:54:19;0.38;;;0.38;;
28086;SDS011;15392;48.912;8.380;2023-07-20T04:56:45;0.50;;;0.50;;
28086;SDS011;15392;48.912;8.380;2023-07-20T04:59:11;0.40;;;0.40;;
28086;SDS011;15392;48.912;8.380;2023-07-20T05:01:37;0.57;;;0.43;;
28086;SDS011;15392;48.912;8.380;2023-07-20T05:04:03;0.40;;;0.40;;
28086;SDS011;15392;48.912;8.380;2023-07-20T05:06:28;0.47;;;0.47;;
28086;SDS011;15392;48.912;8.380;2023-07-20T05:08:54;0.40;;;0.40;;
28086;SDS011;15392;48.912;8.380;2023-07-20T05:11:20;0.43;;;0.43;;
28086;SDS011;15392;48.912;8.380;2023-07-20T05:13:46;0.32;;;0.32;;
28086;SDS011;15392;48.912;8.380;2023-07-20T05:16:12;0.32;;;0.32;;
28086;SDS011;15392;48.912;8.380;2023-07-20T05:18:38;0.40;;;0.40;;
28086;SDS011;15392;48.912;8.380;2023-07-20T05:21:05;0.40;;;0.40;;
28086;SDS011;15392;48.912;8.380;2023-07-20T05:23:31;0.40;;;0.40;;
28086;SDS011;15392;48.912;8.380;2023-07-20T05:26:00;1.25;;;0.35;;
28086;SDS011;15392;48.912;8.380;2023-07-20T05:28:25;0.50;;;0.50;;
28086;SDS011;15392;48.912;8.380;2023-07-20T05:30:52;0.40;;;0.40;;
28086;SDS011;15392;48.912;8.380;2023-07-20T05:33:19;0.30;;;0.30;;
28086;SDS011;15392;48.912;8.380;2023-07-20T05:35:45;0.40;;;0.40;;
28086;SDS011;15392;48.912;8.380;2023-07-20T05:38:12;0.47;;;0.47;;
28086;SDS011;15392;48.912;8.380;2023-07-20T05:40:38;1.63;;;0.45;;
28086;SDS011;15392;48.912;8.380;2023-07-20T05:43:05;0.60;;;0.60;;
28086;SDS011;15392;48.912;8.380;2023-07-20T05:45:31;0.73;;;0.32;;
28086;SDS011;15392;48.912;8.380;2023-07-20T05:47:57;0.43;;;0.43;;
28086;SDS011;15392;48.912;8.380;2023-07-20T05:50:22;1.42;;;0.40;;
28086;SDS011;15392;48.912;8.380;2023-07-20T05:52:48;0.50;;;0.50;;
28086;SDS011;15392;48.912;8.380;2023-07-20T05:55:17;0.32;;;0.32;;
28086;SDS011;15392;48.912;8.380;2023-07-20T05:57:43;0.47;;;0.47;;
28086;SDS011;15392;48.912;8.380;2023-07-20T06:00:09;0.55;;;0.55;;
28086;SDS011;15392;48.912;8.380;2023-07-20T06:02:38;0.60;;;0.60;;
28086;SDS011;15392;48.912;8.380;2023-07-20T06:05:05;0.50;;;0.50;;
28086;SDS011;15392;48.912;8.380;2023-07-20T06:07:37;0.38;;;0.38;;
28086;SDS011;15392;48.912;8.380;2023-07-20T06:10:03;0.45;;;0.45;;
28086;SDS011;15392;48.912;8.380;2023-07-20T06:12:31;0.60;;;0.60;;
28086;SDS011;15392;48.912;8.380;2023-07-20T06:14:57;0.43;;;0.43;;
28086;SDS011;15392;48.912;8.380;2023-07-20T06:17:27;0.40;;;0.40;;
28086;SDS011;15392;48.912;8.380;2023-07-20T06:19:53;0.55;;;0.55;;
28086;SDS011;15392;48.912;8.380;2023-07-20T06:22:18;0.30;;;0.30;;
28086;SDS011;15392;48.912;8.380;2023-07-20T06:24:44;0.50;;;0.50;;
28086;SDS011;15392;48.912;8.380;2023-07-20T06:27:10;0.50;;;0.50;;
28086;SDS011;15392;48.912;8.380;2023-07-20T06:29:37;0.40;;;0.40;;
28086;SDS011;15392;48.912;8.380;2023-07-20T06:32:03;0.70;;;0.70;;
28086;SDS011;15392;48.912;8.380;2023-07-20T06:34:30;0.52;;;0.52;;
28086;SDS011;15392;48.912;8.380;2023-07-20T06:36:56;0.50;;;0.50;;
28086;SDS011;15392;48.912;8.380;2023-07-20T06:39:22;0.38;;;0.38;;
28086;SDS011;15392;48.912;8.380;2023-07-20T06:41:48;0.47;;;0.47;;
28086;SDS011;15392;48.912;8.380;2023-07-20T06:44:14;0.50;;;0.50;;
28086;SDS011;15392;48.912;8.380;2023-07-20T06:46:40;0.40;;;0.40;;
28086;SDS011;15392;48.912;8.380;2023-07-20T06:49:06;0.47;;;0.47;;
28086;SDS011;15392;48.912;8.380;2023-07-20T06:51:33;0.30;;;0.30;;
28086;SDS011;15392;48.912;8.380;2023-07-20T06:53:58;0.60;;;0.60;;
28086;SDS011;15392;48.912;8.380;2023-07-20T06:56:24;0.60;;;0.60;;
28086;SDS011;15392;48.912;8.380;2023-07-20T06:58:50;1.38;;;0.57;;
28086;SDS011;15392;48.912;8.380;2023-07-20T07:01:15;0.45;;;0.45;;
28086;SDS011;15392;48.912;8.380;2023-07-20T07:03:42;0.73;;;0.73;;
28086;SDS011;15392;48.912;8.380;2023-07-20T07:06:09;0.65;;;0.65;;
28086;SDS011;15392;48.912;8.380;2023-07-20T07:08:35;0.45;;;0.45;;
28086;SDS011;15392;48.912;8.380;2023-07-20T07:11:01;0.40;;;0.40;;
28086;SDS011;15392;48.912;8.380;2023-07-20T07:13:27;0.43;;;0.43;;
28086;SDS011;15392;48.912;8.380;2023-07-20T07:15:53;0.50;;;0.50;;
28086;SDS011;15392;48.912;8.380;2023-07-20T07:18:18;0.43;;;0.43;;
28086;SDS011;15392;48.912;8.380;2023-07-20T07:20:52;0.50;;;0.50;;
28086;SDS011;15392;48.912;8.380;2023-07-20T07:23:18;0.50;;;0.43;;
28086;SDS011;15392;48.912;8.380;2023-07-20T07:25:44;0.50;;;0.50;;
28086;SDS011;15392;48.912;8.380;2023-07-20T07:28:11;0.68;;;0.50;;
28086;SDS011;15392;48.912;8.380;2023-07-20T07:30:37;0.40;;;0.40;;
28086;SDS011;15392;48.912;8.380;2023-07-20T07:33:03;1.17;;;0.47;;
28086;SDS011;15392;48.912;8.380;2023-07-20T07:35:29;0.50;;;0.50;;
28086;SDS011;15392;48.912;8.380;2023-07-20T07:37:54;0.30;;;0.30;;
28086;SDS011;15392;48.912;8.380;2023-07-20T07:40:20;0.50;;;0.50;;
28086;SDS011;15392;48.912;8.380;2023-07-20T07:42:46;0.73;;;0.40;;
28086;SDS011;15392;48.912;8.380;2023-07-20T07:45:12;0.43;;;0.43;;
28086;SDS011;15392;48.912;8.380;2023-07-20T07:47:38;0.70;;;0.40;;
28086;SDS011;15392;48.912;8.380;2023-07-20T07:50:04;1.38;;;0.50;;
28086;SDS011;15392;48.912;8.380;2023-07-20T07:52:31;0.47;;;0.47;;
28086;SDS011;15392;48.912;8.380;2023-07-20T07:54:57;0.32;;;0.32;;
28086;SDS011;15392;48.912;8.380;2023-07-20T07:57:23;0.30;;;0.30;;
28086;SDS011;15392;48.912;8.380;2023-07-20T07:59:49;0.40;;;0.40;;
28086;SDS011;15392;48.912;8.380;2023-07-20T08:02:15;0.50;;;0.50;;
28086;SDS011;15392;48.912;8.380;2023-07-20T08:04:41;0.30;;;0.30;;
28086;SDS011;15392;48.912;8.380;2023-07-20T08:07:06;0.20;;;0.20;;
28086;SDS011;15392;48.912;8.380;2023-07-20T08:09:32;0.30;;;0.30;;
28086;SDS011;15392;48.912;8.380;2023-07-20T08:11:58;0.30;;;0.30;;
28086;SDS011;15392;48.912;8.380;2023-07-20T08:14:24;0.30;;;0.30;;
28086;SDS011;15392;48.912;8.380;2023-07-20T08:16:50;0.20;;;0.20;;
28086;SDS011;15392;48.912;8.380;2023-07-20T08:19:16;1.38;;;0.35;;
28086;SDS011;15392;48.912;8.380;2023-07-20T08:21:42;0.30;;;0.30;;
28086;SDS011;15392;48.912;8.380;2023-07-20T08:24:08;0.30;;;0.30;;
28086;SDS011;15392;48.912;8.380;2023-07-20T08:26:34;0.40;;;0.40;;
28086;SDS011;15392;48.912;8.380;2023-07-20T08:29:00;0.30;;;0.30;;
28086;SDS011;15392;48.912;8.380;2023-07-20T08:31:25;0.30;;;0.30;;
28086;SDS011;15392;48.912;8.380;2023-07-20T08:33:53;0.38;;;0.38;;
28086;SDS011;15392;48.912;8.380;2023-07-20T08:36:19;0.30;;;0.30;;
28086;SDS011;15392;48.912;8.380;2023-07-20T08:38:44;0.20;;;0.20;;
28086;SDS011;15392;48.912;8.380;2023-07-20T08:41:10;1.60;;;0.30;;
28086;SDS011;15392;48.912;8.380;2023-07-20T08:43:37;0.30;;;0.30;;
28086;SDS011;15392;48.912;8.380;2023-07-20T08:46:03;1.30;;;0.30;;
28086;SDS011;15392;48.912;8.380;2023-07-20T08:48:30;0.30;;;0.30;;
28086;SDS011;15392;48.912;8.380;2023-07-20T08:50:56;0.30;;;0.30;;
28086;SDS011;15392;48.912;8.380;2023-07-20T08:53:25;0.20;;;0.20;;
28086;SDS011;15392;48.912;8.380;2023-07-20T08:55:52;0.22;;;0.22;;
28086;SDS011;15392;48.912;8.380;2023-07-20T08:58:18;0.20;;;0.20;;
28086;SDS011;15392;48.912;8.380;2023-07-20T09:00:45;0.35;;;0.35;;
28086;SDS011;15392;48.912;8.380;2023-07-20T09:03:11;0.13;;;0.13;;
28086;SDS011;15392;48.912;8.380;2023-07-20T09:05:37;0.30;;;0.30;;
28086;SDS011;15392;48.912;8.380;2023-07-20T09:08:05;0.93;;;0.32;;
28086;SDS011;15392;48.912;8.380;2023-07-20T09:10:32;0.20;;;0.20;;
28086;SDS011;15392;48.912;8.380;2023-07-20T09:12:58;0.30;;;0.30;;
28086;SDS011;15392;48.912;8.380;2023-07-20T09:15:24;0.20;;;0.20;;
28086;SDS011;15392;48.912;8.380;2023-07-20T09:17:51;0.20;;;0.20;;
28086;SDS011;15392;48.912;8.380;2023-07-20T09:20:19;0.28;;;0.28;;
28086;SDS011;15392;48.912;8.380;2023-07-20T09:22:45;0.20;;;0.20;;
28086;SDS011;15392;48.912;8.380;2023-07-20T09:25:15;0.20;;;0.20;;
28086;SDS011;15392;48.912;8.380;2023-07-20T09:27:45;0.20;;;0.20;;
28086;SDS011;15392;48.912;8.380;2023-07-20T09:30:13;0.25;;;0.20;;
28086;SDS011;15392;48.912;8.380;2023-07-20T09:32:44;0.30;;;0.30;;
28086;SDS011;15392;48.912;8.380;2023-07-20T09:35:16;0.30;;;0.30;;
28086;SDS011;15392;48.912;8.380;2023-07-20T09:37:53;0.20;;;0.20;;
28086;SDS011;15392;48.912;8.380;2023-07-20T09:40:23;0.30;;;0.30;;
28086;SDS011;15392;48.912;8.380;2023-07-20T09:42:51;0.50;;;0.20;;
28086;SDS011;15392;48.912;8.380;2023-07-20T09:45:27;0.30;;;0.30;;
28086;SDS011;15392;48.912;8.380;2023-07-20T09:48:14;0.20;;;0.20;;
28086;SDS011;15392;48.912;8.380;2023-07-20T09:50:41;0.20;;;0.20;;
28086;SDS011;15392;48.912;8.380;2023-07-20T09:53:13;0.68;;;0.30;;
28086;SDS011;15392;48.912;8.380;2023-07-20T09:55:43;0.32;;;0.32;;
28086;SDS011;15392;48.912;8.380;2023-07-20T09:58:11;0.10;;;0.10;;
28086;SDS011;15392;48.912;8.380;2023-07-20T10:00:38;0.32;;;0.30;;
28086;SDS011;15392;48.912;8.380;2023-07-20T10:03:05;0.20;;;0.20;;
28086;SDS011;15392;48.912;8.380;2023-07-20T10:05:35;0.20;;;0.20;;
28086;SDS011;15392;48.912;8.380;2023-07-20T10:08:05;0.30;;;0.30;;
28086;SDS011;15392;48.912;8.380;2023-07-20T10:10:37;0.20;;;0.20;;
28086;SDS011;15392;48.912;8.380;2023-07-20T10:13:06;0.20;;;0.20;;
28086;SDS011;15392;48.912;8.380;2023-07-20T10:18:03;0.30;;;0.30;;
28086;SDS011;15392;48.912;8.380;2023-07-20T10:20:39;0.20;;;0.20;;
28086;SDS011;15392;48.912;8.380;2023-07-20T10:23:06;0.40;;;0.40;;
28086;SDS011;15392;48.912;8.380;2023-07-20T10:25:33;0.40;;;0.40;;
28086;SDS011;15392;48.912;8.380;2023-07-20T10:28:05;0.15;;;0.15;;
28086;SDS011;15392;48.912;8.380;2023-07-20T10:30:33;0.20;;;0.20;;
28086;SDS011;15392;48.912;8.380;2023-07-20T10:33:00;0.10;;;0.10;;
28086;SDS011;15392;48.912;8.380;2023-07-20T10:35:30;0.20;;;0.20;;
28086;SDS011;15392;48.912;8.380;2023-07-20T10:38:00;0.20;;;0.20;;
28086;SDS011;15392;48.912;8.380;2023-07-20T10:40:30;0.30;;;0.30;;
28086;SDS011;15392;48.912;8.380;2023-07-20T10:43:16;0.40;;;0.30;;
28086;SDS011;15392;48.912;8.380;2023-07-20T10:46:03;0.30;;;0.30;;
28086;SDS011;15392;48.912;8.380;2023-07-20T10:48:29;0.28;;;0.28;;
28086;SDS011;15392;48.912;8.380;2023-07-20T10:51:13;0.30;;;0.30;;
28086;SDS011;15392;48.912;8.380;2023-07-20T10:53:45;0.30;;;0.30;;
28086;SDS011;15392;48.912;8.380;2023-07-20T10:56:15;0.20;;;0.20;;
28086;SDS011;15392;48.912;8.380;2023-07-20T10:58:46;0.30;;;0.30;;
28086;SDS011;15392;48.912;8.380;2023-07-20T11:01:17;0.13;;;0.13;;
28086;SDS011;15392;48.912;8.380;2023-07-20T11:03:51;0.25;;;0.25;;
28086;SDS011;15392;48.912;8.380;2023-07-20T11:09:11;0.30;;;0.30;;
28086;SDS011;15392;48.912;8.380;2023-07-20T11:11:41;0.20;;;0.20;;
28086;SDS011;15392;48.912;8.380;2023-07-20T11:14:22;0.30;;;0.30;;
28086;SDS011;15392;48.912;8.380;2023-07-20T11:16:50;0.30;;;0.30;;
28086;SDS011;15392;48.912;8.380;2023-07-20T11:24:49;0.10;;;0.10;;
28086;SDS011;15392;48.912;8.380;2023-07-20T11:27:15;0.22;;;0.22;;
28086;SDS011;15392;48.912;8.380;2023-07-20T11:29:43;0.20;;;0.20;;
28086;SDS011;15392;48.912;8.380;2023-07-20T11:32:10;0.20;;;0.20;;
28086;SDS011;15392;48.912;8.380;2023-07-20T11:34:36;1.55;;;0.28;;
28086;SDS011;15392;48.912;8.380;2023-07-20T11:37:02;0.20;;;0.20;;
28086;SDS011;15392;48.912;8.380;2023-07-20T11:39:29;0.20;;;0.20;;
28086;SDS011;15392;48.912;8.380;2023-07-20T11:41:55;0.10;;;0.10;;
28086;SDS011;15392;48.912;8.380;2023-07-20T11:44:22;0.20;;;0.20;;
28086;SDS011;15392;48.912;8.380;2023-07-20T11:47:09;0.38;;;0.15;;
28086;SDS011;15392;48.912;8.380;2023-07-20T11:49:37;0.20;;;0.20;;
28086;SDS011;15392;48.912;8.380;2023-07-20T11:52:07;0.30;;;0.30;;
28086;SDS011;15392;48.912;8.380;2023-07-20T11:54:41;0.20;;;0.20;;
28086;SDS011;15392;48.912;8.380;2023-07-20T11:57:16;0.10;;;0.10;;
28086;SDS011;15392;48.912;8.380;2023-07-20T11:59:55;0.65;;;0.25;;
28086;SDS011;15392;48.912;8.380;2023-07-20T12:02:25;0.20;;;0.20;;
28086;SDS011;15392;48.912;8.380;2023-07-20T12:04:56;0.17;;;0.17;;
28086;SDS011;15392;48.912;8.380;2023-07-20T12:07:25;0.20;;;0.10;;
28086;SDS011;15392;48.912;8.380;2023-07-20T12:10:06;0.17;;;0.10;;
28086;SDS011;15392;48.912;8.380;2023-07-20T12:12:34;0.10;;;0.10;;
28086;SDS011;15392;48.912;8.380;2023-07-20T12:17:45;0.98;;;0.10;;
28086;SDS011;15392;48.912;8.380;2023-07-20T12:20:24;0.10;;;0.10;;
28086;SDS011;15392;48.912;8.380;2023-07-20T12:23:08;0.20;;;0.10;;
28086;SDS011;15392;48.912;8.380;2023-07-20T12:28:13;0.20;;;0.20;;
28086;SDS011;15392;48.912;8.380;2023-07-20T12:30:42;0.25;;;0.10;;
28086;SDS011;15392;48.912;8.380;2023-07-20T12:33:13;0.20;;;0.20;;
28086;SDS011;15392;48.912;8.380;2023-07-20T12:35:40;0.10;;;0.10;;
28086;SDS011;15392;48.912;8.380;2023-07-20T12:38:08;0.20;;;0.20;;
28086;SDS011;15392;48.912;8.380;2023-07-20T12:40:34;0.00;;;0.00;;
28086;SDS011;15392;48.912;8.380;2023-07-20T12:45:31;0.10;;;0.10;;
28086;SDS011;15392;48.912;8.380;2023-07-20T12:47:57;0.10;;;0.10;;
28086;SDS011;15392;48.912;8.380;2023-07-20T12:50:23;0.13;;;0.10;;
28086;SDS011;15392;48.912;8.380;2023-07-20T12:52:48;0.15;;;0.15;;
28086;SDS011;15392;48.912;8.380;2023-07-20T12:55:14;0.10;;;0.10;;
28086;SDS011;15392;48.912;8.380;2023-07-20T12:57:40;0.00;;;0.00;;
28086;SDS011;15392;48.912;8.380;2023-07-20T13:00:07;0.10;;;0.10;;
28086;SDS011;15392;48.912;8.380;2023-07-20T13:02:37;0.10;;;0.10;;
28086;SDS011;15392;48.912;8.380;2023-07-20T13:05:07;0.10;;;0.10;;
28086;SDS011;15392;48.912;8.380;2023-07-20T13:07:36;0.10;;;0.10;;
28086;SDS011;15392;48.912;8.380;2023-07-20T13:10:04;0.10;;;0.10;;
28086;SDS011;15392;48.912;8.380;2023-07-20T13:12:32;0.10;;;0.10;;
28086;SDS011;15392;48.912;8.380;2023-07-20T13:15:03;0.10;;;0.10;;
28086;SDS011;15392;48.912;8.380;2023-07-20T13:17:31;0.10;;;0.10;;
28086;SDS011;15392;48.912;8.380;2023-07-20T13:19:58;0.10;;;0.10;;
28086;SDS011;15392;48.912;8.380;2023-07-20T13:22:24;0.10;;;0.10;;
28086;SDS011;15392;48.912;8.380;2023-07-20T13:24:50;0.20;;;0.20;;
28086;SDS011;15392;48.912;8.380;2023-07-20T13:27:18;0.28;;;0.17;;
28086;SDS011;15392;48.912;8.380;2023-07-20T13:29:48;0.03;;;0.03;;
28086;SDS011;15392;48.912;8.380;2023-07-20T13:34:43;0.03;;;0.03;;
28086;SDS011;15392;48.912;8.380;2023-07-20T13:37:10;0.00;;;0.00;;
28086;SDS011;15392;48.912;8.380;2023-07-20T13:39:37;0.10;;;0.10;;
28086;SDS011;15392;48.912;8.380;2023-07-20T13:42:03;0.10;;;0.10;;
28086;SDS011;15392;48.912;8.380;2023-07-20T13:44:33;2.10;;;0.10;;
28086;SDS011;15392;48.912;8.380;2023-07-20T13:47:00;0.10;;;0.10;;
28086;SDS011;15392;48.912;8.380;2023-07-20T13:49:28;0.20;;;0.20;;
28086;SDS011;15392;48.912;8.380;2023-07-20T13:51:55;0.20;;;0.20;;
28086;SDS011;15392;48.912;8.380;2023-07-20T13:54:24;0.10;;;0.10;;
28086;SDS011;15392;48.912;8.380;2023-07-20T13:56:50;0.10;;;0.10;;
28086;SDS011;15392;48.912;8.380;2023-07-20T13:59:17;0.10;;;0.10;;
28086;SDS011;15392;48.912;8.380;2023-07-20T14:01:43;0.15;;;0.13;;
28086;SDS011;15392;48.912;8.380;2023-07-20T14:04:10;0.10;;;0.10;;
28086;SDS011;15392;48.912;8.380;2023-07-20T14:06:36;0.10;;;0.10;;
28086;SDS011;15392;48.912;8.380;2023-07-20T14:09:03;0.10;;;0.10;;
28086;SDS011;15392;48.912;8.380;2023-07-20T14:11:31;0.10;;;0.10;;
28086;SDS011;15392;48.912;8.380;2023-07-20T14:13:57;0.10;;;0.10;;
28086;SDS011;15392;48.912;8.380;2023-07-20T14:16:23;0.10;;;0.10;;
28086;SDS011;15392;48.912;8.380;2023-07-20T14:18:50;0.75;;;0.10;;
28086;SDS011;15392;48.912;8.380;2023-07-20T14:21:16;0.13;;;0.10;;
28086;SDS011;15392;48.912;8.380;2023-07-20T14:23:46;0.20;;;0.20;;
28086;SDS011;15392;48.912;8.380;2023-07-20T14:26:14;0.20;;;0.20;;
28086;SDS011;15392;48.912;8.380;2023-07-20T14:28:41;0.20;;;0.20;;
28086;SDS011;15392;48.912;8.380;2023-07-20T14:31:06;0.20;;;0.20;;
28086;SDS011;15392;48.912;8.380;2023-07-20T14:33:32;0.10;;;0.10;;
28086;SDS011;15392;48.912;8.380;2023-07-20T14:35:59;0.10;;;0.10;;
28086;SDS011;15392;48.912;8.380;2023-07-20T14:38:26;0.20;;;0.20;;
28086;SDS011;15392;48.912;8.380;2023-07-20T14:40:54;0.20;;;0.20;;
28086;SDS011;15392;48.912;8.380;2023-07-20T14:43:20;0.08;;;0.08;;
28086;SDS011;15392;48.912;8.380;2023-07-20T14:45:46;0.20;;;0.20;;
28086;SDS011;15392;48.912;8.380;2023-07-20T14:48:12;0.10;;;0.08;;
28086;SDS011;15392;48.912;8.380;2023-07-20T14:50:37;0.20;;;0.20;;
28086;SDS011;15392;48.912;8.380;2023-07-20T14:53:04;0.20;;;0.20;;
28086;SDS011;15392;48.912;8.380;2023-07-20T14:55:29;0.20;;;0.20;;
28086;SDS011;15392;48.912;8.380;2023-07-20T15:00:47;0.10;;;0.10;;
28086;SDS011;15392;48.912;8.380;2023-07-20T15:03:13;0.20;;;0.20;;
28086;SDS011;15392;48.912;8.380;2023-07-20T15:05:39;0.30;;;0.30;;
28086;SDS011;15392;48.912;8.380;2023-07-20T15:08:05;0.20;;;0.20;;
28086;SDS011;15392;48.912;8.380;2023-07-20T15:10:34;0.10;;;0.10;;
28086;SDS011;15392;48.912;8.380;2023-07-20T15:13:03;0.22;;;0.10;;
28086;SDS011;15392;48.912;8.380;2023-07-20T15:15:30;0.20;;;0.20;;
28086;SDS011;15392;48.912;8.380;2023-07-20T15:17:56;0.10;;;0.10;;
28086;SDS011;15392;48.912;8.380;2023-07-20T15:20:21;0.17;;;0.17;;
28086;SDS011;15392;48.912;8.380;2023-07-20T15:22:47;0.10;;;0.10;;
28086;SDS011;15392;48.912;8.380;2023-07-20T15:25:13;0.20;;;0.20;;